Time;durP1;ratioP1;P1;durP2;ratioP2;P2;SDS_P1;SDS_P2;PMS_P1;PMS_P2;Temp;Humidity;BMP_temperature;BMP_pressure;BME280_temperature;BME280_humidity;BME280_pressure;Samples;Min_cycle;Max_cycle;Signal;HPM_P1;HPM_P2
2022/12/09 00:01:32;;;;;;;77.23;12.60;;;3.30;99.90;;;;;;5077040;28;20175;-86
2022/12/09 00:03:58;;;;;;;73.67;12.37;;;3.30;99.90;;;;;;5076676;28;20167;-86
2022/12/09 00:06:26;;;;;;;73.47;11.83;;;3.30;99.90;;;;;;5076476;28;20199;-86
2022/12/09 00:08:53;;;;;;;73.03;11.57;;;3.20;99.90;;;;;;5076298;28;20180;-86
2022/12/09 00:11:19;;;;;;;70.95;10.50;;;3.20;99.90;;;;;;5076837;28;20217;-86
2022/12/09 00:13:56;;;;;;;77.43;12.40;;;3.20;99.90;;;;;;5076483;28;20191;-86
2022/12/09 00:16:23;;;;;;;77.43;10.95;;;3.20;99.90;;;;;;5077078;28;20171;-86
2022/12/09 00:18:49;;;;;;;74.75;11.95;;;3.10;99.90;;;;;;5058300;28;20199;-86
2022/12/09 00:21:23;;;;;;;75.53;12.15;;;3.10;99.90;;;;;;5076374;28;20179;-86
2022/12/09 00:23:50;;;;;;;80.70;12.48;;;3.10;99.90;;;;;;5076237;28;20148;-86
2022/12/09 00:26:17;;;;;;;77.65;12.57;;;3.10;99.90;;;;;;5058025;28;20172;-86
2022/12/09 00:28:43;;;;;;;75.43;13.20;;;3.10;99.90;;;;;;5076022;28;20599;-86
2022/12/09 00:31:13;;;;;;;77.70;13.90;;;3.00;99.90;;;;;;5075951;28;20188;-86
2022/12/09 00:33:39;;;;;;;77.32;13.25;;;3.00;99.90;;;;;;5057823;28;20452;-86
2022/12/09 00:36:06;;;;;;;76.27;12.27;;;3.00;99.90;;;;;;5075741;28;20168;-86
2022/12/09 00:38:31;;;;;;;80.30;12.60;;;3.00;99.90;;;;;;5057935;28;20403;-86
2022/12/09 00:40:57;;;;;;;76.57;12.97;;;2.90;99.90;;;;;;5075637;28;20222;-86
2022/12/09 00:43:23;;;;;;;78.50;12.87;;;2.90;99.90;;;;;;5075690;28;20425;-86
2022/12/09 00:45:49;;;;;;;75.60;13.47;;;2.90;99.90;;;;;;5075581;28;20790;-86
2022/12/09 00:48:14;;;;;;;79.13;13.80;;;2.90;99.90;;;;;;5076042;28;20168;-86
2022/12/09 00:50:40;;;;;;;79.47;16.10;;;2.90;99.90;;;;;;5075289;28;20270;-86
2022/12/09 00:53:05;;;;;;;78.20;12.57;;;3.00;99.90;;;;;;5074200;28;20684;-86
2022/12/09 00:55:31;;;;;;;74.70;13.93;;;2.90;99.90;;;;;;5075533;28;20160;-86
2022/12/09 00:57:57;;;;;;;76.93;13.50;;;2.90;99.90;;;;;;5057350;28;20704;-86
2022/12/09 01:00:22;;;;;;;76.67;13.13;;;2.90;99.90;;;;;;5057831;28;20661;-86
2022/12/09 01:02:48;;;;;;;76.70;12.57;;;2.90;99.90;;;;;;5057282;28;20175;-86
2022/12/09 01:05:14;;;;;;;71.80;10.33;;;2.90;99.90;;;;;;5075496;28;20164;-86
2022/12/09 01:07:39;;;;;;;72.87;10.93;;;2.90;99.90;;;;;;5075767;28;20168;-86
2022/12/09 01:10:06;;;;;;;71.70;10.30;;;2.90;99.90;;;;;;5075495;28;20199;-86
2022/12/09 01:12:32;;;;;;;72.10;10.32;;;3.00;99.90;;;;;;5057006;28;20187;-86
2022/12/09 01:14:58;;;;;;;73.85;11.30;;;3.00;99.90;;;;;;5075311;28;20168;-86
2022/12/09 01:17:24;;;;;;;73.00;11.27;;;2.90;99.90;;;;;;5075201;28;20160;-86
2022/12/09 01:19:49;;;;;;;74.70;12.03;;;2.90;99.90;;;;;;5057165;28;20164;-86
2022/12/09 01:22:15;;;;;;;73.40;10.73;;;2.90;99.90;;;;;;5075222;28;20641;-86
2022/12/09 01:24:41;;;;;;;72.30;11.63;;;2.90;99.90;;;;;;5075244;28;20238;-86
2022/12/09 01:27:07;;;;;;;74.77;11.17;;;2.80;99.90;;;;;;5056959;28;20429;-86
2022/12/09 01:29:32;;;;;;;72.20;11.60;;;2.90;99.90;;;;;;5075369;28;20168;-86
2022/12/09 01:31:58;;;;;;;72.70;11.03;;;2.80;99.90;;;;;;5075786;28;20229;-86
2022/12/09 01:34:24;;;;;;;77.43;12.30;;;2.80;99.90;;;;;;5057278;28;20665;-86
2022/12/09 01:36:49;;;;;;;73.03;11.47;;;2.90;99.90;;;;;;5057931;28;20568;-86
2022/12/09 01:39:15;;;;;;;75.40;11.03;;;2.80;99.90;;;;;;5080655;28;20164;-86
2022/12/09 01:41:41;;;;;;;76.35;12.13;;;2.80;99.90;;;;;;5083627;28;20306;-86
2022/12/09 01:44:11;;;;;;;72.40;11.75;;;2.90;99.90;;;;;;5078521;28;20246;-86
2022/12/09 01:46:36;;;;;;;77.25;13.80;;;2.90;99.90;;;;;;5079597;28;20183;-86
2022/12/09 01:49:04;;;;;;;77.70;11.03;;;2.90;99.90;;;;;;5079385;28;20163;-86
2022/12/09 01:51:31;;;;;;;74.60;11.77;;;2.90;99.90;;;;;;5079455;28;20756;-86
2022/12/09 01:54:00;;;;;;;78.32;11.65;;;2.90;99.90;;;;;;5078818;28;20189;-86
2022/12/09 01:56:34;;;;;;;74.90;13.00;;;2.90;99.90;;;;;;5061757;28;20227;-86
2022/12/09 01:59:09;;;;;;;72.50;11.05;;;3.00;99.90;;;;;;5079270;28;20151;-86
2022/12/09 02:01:36;;;;;;;73.00;12.05;;;3.00;99.90;;;;;;5080008;28;20640;-86
2022/12/09 02:04:03;;;;;;;77.78;11.15;;;3.00;99.90;;;;;;5078420;28;20252;-85
2022/12/09 02:06:29;;;;;;;71.93;10.95;;;3.00;99.90;;;;;;5079861;28;20215;-86
2022/12/09 02:08:55;;;;;;;76.10;11.53;;;3.00;99.90;;;;;;5076838;28;20513;-86
2022/12/09 02:11:37;;;;;;;72.97;10.50;;;3.00;99.90;;;;;;5075579;28;20672;-86
2022/12/09 02:14:15;;;;;;;75.72;11.25;;;3.00;99.90;;;;;;5057761;28;20568;-86
2022/12/09 02:16:58;;;;;;;75.22;13.40;;;2.90;99.90;;;;;;5075536;28;20156;-86
2022/12/09 02:19:45;;;;;;;76.30;11.75;;;3.00;99.90;;;;;;5057364;28;20159;-86
2022/12/09 02:22:13;;;;;;;74.35;12.45;;;3.00;99.90;;;;;;5075170;28;20160;-86
2022/12/09 02:24:50;;;;;;;75.88;13.00;;;3.00;99.90;;;;;;5057293;28;20183;-85
2022/12/09 02:27:27;;;;;;;79.05;12.82;;;3.00;99.90;;;;;;5056984;28;20163;-86
2022/12/09 02:30:01;;;;;;;78.82;12.50;;;3.00;99.90;;;;;;5074946;28;20152;-86
2022/12/09 02:33:07;;;;;;;74.03;13.00;;;3.00;99.90;;;;;;5056982;28;20171;-86
2022/12/09 02:35:56;;;;;;;72.72;11.40;;;3.00;99.90;;;;;;5074818;28;20156;-86
2022/12/09 02:38:26;;;;;;;74.20;12.05;;;3.00;99.90;;;;;;5057589;28;20167;-86
2022/12/09 02:40:55;;;;;;;74.00;12.00;;;3.00;99.90;;;;;;5074954;28;20203;-86
2022/12/09 02:43:24;;;;;;;79.10;14.50;;;3.00;99.90;;;;;;5075287;28;20213;-86
2022/12/09 02:45:52;;;;;;;77.43;12.32;;;3.00;99.90;;;;;;5074543;28;20163;-86
2022/12/09 02:48:25;;;;;;;76.55;11.70;;;3.00;99.90;;;;;;5056580;28;20174;-86
2022/12/09 02:50:52;;;;;;;75.32;12.73;;;3.00;99.90;;;;;;5056260;28;20237;-86
2022/12/09 02:53:18;;;;;;;75.95;11.98;;;3.00;99.90;;;;;;5074386;28;20280;-86
2022/12/09 02:55:47;;;;;;;74.53;13.13;;;3.00;99.90;;;;;;5075241;28;20524;-86
2022/12/09 02:58:13;;;;;;;81.05;12.48;;;3.00;99.90;;;;;;5039707;28;20202;-86
2022/12/09 03:00:39;;;;;;;74.23;13.00;;;2.90;99.90;;;;;;5074371;28;20668;-86
2022/12/09 03:03:08;;;;;;;78.43;11.77;;;2.90;99.90;;;;;;5074041;28;20408;-86
2022/12/09 03:06:08;;;;;;;75.05;13.05;;;2.90;99.90;;;;;;5056230;28;20174;-86
2022/12/09 03:08:56;;;;;;;73.50;10.93;;;2.90;99.90;;;;;;5056054;28;20730;-86
2022/12/09 03:11:23;;;;;;;74.65;12.30;;;2.90;99.90;;;;;;5073842;28;20192;-86
2022/12/09 03:14:02;;;;;;;76.85;12.00;;;2.90;99.90;;;;;;5073669;28;20196;-86
2022/12/09 03:16:38;;;;;;;74.75;13.63;;;3.00;99.90;;;;;;5077414;28;20168;-86
2022/12/09 03:19:24;;;;;;;75.00;14.95;;;2.90;99.90;;;;;;5078175;28;20204;-86
2022/12/09 03:21:54;;;;;;;76.57;16.58;;;2.90;99.90;;;;;;5059534;28;20278;-86
2022/12/09 03:24:26;;;;;;;80.25;17.65;;;2.90;99.90;;;;;;5077580;28;20194;-86
2022/12/09 03:26:53;;;;;;;79.30;15.20;;;2.90;99.90;;;;;;5077512;28;20206;-86
2022/12/09 03:29:23;;;;;;;80.85;18.92;;;2.90;99.90;;;;;;5077134;28;20250;-86
2022/12/09 03:31:51;;;;;;;78.68;18.77;;;2.80;99.90;;;;;;5077447;28;20676;-86
2022/12/09 03:34:25;;;;;;;78.32;18.65;;;2.80;99.90;;;;;;5059463;28;20211;-86
2022/12/09 03:36:52;;;;;;;80.45;21.27;;;2.80;99.90;;;;;;5077601;28;20251;-86
2022/12/09 03:39:24;;;;;;;78.65;17.40;;;2.90;99.90;;;;;;5077785;28;20160;-86
2022/12/09 03:41:54;;;;;;;77.03;15.93;;;3.00;99.90;;;;;;5077325;28;20731;-86
2022/12/09 03:44:49;;;;;;;81.40;18.17;;;3.00;99.90;;;;;;5077498;28;20202;-86
2022/12/09 03:47:15;;;;;;;80.68;20.92;;;3.00;99.90;;;;;;5077293;28;20152;-86
2022/12/09 03:49:40;;;;;;;77.20;21.53;;;2.90;99.90;;;;;;5077545;28;20518;-86
2022/12/09 03:52:18;;;;;;;83.20;21.70;;;2.90;99.90;;;;;;5076889;28;20171;-86
2022/12/09 03:54:47;;;;;;;79.78;23.95;;;2.80;99.90;;;;;;5059468;28;20191;-86
2022/12/09 03:57:15;;;;;;;79.72;22.67;;;2.90;99.90;;;;;;5077323;28;20298;-86
2022/12/09 03:59:45;;;;;;;78.22;21.17;;;2.90;99.90;;;;;;5077243;28;20195;-86
2022/12/09 04:02:11;;;;;;;79.85;18.77;;;3.00;99.90;;;;;;5059504;28;20188;-86
2022/12/09 04:04:41;;;;;;;80.43;17.20;;;3.00;99.90;;;;;;5077558;28;20164;-86
2022/12/09 04:07:07;;;;;;;75.65;16.98;;;3.00;99.90;;;;;;5059050;28;20170;-86
2022/12/09 04:09:33;;;;;;;77.82;17.45;;;3.00;99.90;;;;;;5076762;28;20256;-86
2022/12/09 04:11:58;;;;;;;78.93;15.77;;;3.00;99.90;;;;;;5058856;28;20227;-86
2022/12/09 04:14:24;;;;;;;79.40;15.80;;;3.00;99.90;;;;;;5076483;28;20194;-86
2022/12/09 04:16:50;;;;;;;78.57;15.33;;;3.10;99.90;;;;;;5058564;28;20168;-86
2022/12/09 04:19:16;;;;;;;77.90;14.83;;;3.00;99.90;;;;;;5076883;28;20680;-86
2022/12/09 04:21:41;;;;;;;78.93;15.00;;;3.00;99.90;;;;;;5076804;28;20222;-86
2022/12/09 04:24:08;;;;;;;73.70;12.37;;;3.10;99.90;;;;;;5076573;28;20476;-86
2022/12/09 04:26:34;;;;;;;76.90;12.60;;;3.10;99.90;;;;;;5058374;28;20632;-86
2022/12/09 04:29:00;;;;;;;80.45;12.18;;;3.10;99.90;;;;;;5076904;28;20234;-86
2022/12/09 04:31:25;;;;;;;79.50;13.77;;;3.10;99.90;;;;;;5076649;28;20278;-86
2022/12/09 04:33:51;;;;;;;76.17;12.90;;;3.00;99.90;;;;;;5076376;28;20836;-86
2022/12/09 04:36:19;;;;;;;83.63;12.70;;;3.00;99.90;;;;;;5076651;28;20493;-86
2022/12/09 04:38:45;;;;;;;76.20;12.30;;;2.90;99.90;;;;;;5076153;28;20184;-86
2022/12/09 04:41:12;;;;;;;72.93;13.30;;;2.80;99.90;;;;;;5076012;28;20215;-86
2022/12/09 04:43:38;;;;;;;77.43;13.30;;;2.70;99.90;;;;;;5058306;28;20175;-86
2022/12/09 04:46:06;;;;;;;75.05;13.70;;;2.70;99.90;;;;;;5075930;28;20160;-86
2022/12/09 04:48:32;;;;;;;78.80;13.20;;;2.70;99.90;;;;;;5076142;28;20168;-86
2022/12/09 04:50:58;;;;;;;75.72;13.57;;;2.60;99.90;;;;;;5076177;28;20195;-86
2022/12/09 04:53:25;;;;;;;76.07;12.23;;;2.60;99.90;;;;;;5076292;28;20194;-86
2022/12/09 04:56:02;;;;;;;73.07;12.75;;;2.50;99.90;;;;;;5076469;28;20691;-86
2022/12/09 04:58:28;;;;;;;75.28;13.07;;;2.40;99.90;;;;;;5075993;28;20171;-86
2022/12/09 05:00:54;;;;;;;76.03;13.07;;;2.40;99.90;;;;;;5076100;28;20674;-86
2022/12/09 05:03:20;;;;;;;76.13;13.50;;;2.30;99.90;;;;;;5058644;28;20168;-86
2022/12/09 05:05:46;;;;;;;76.25;12.82;;;2.30;99.90;;;;;;5058567;28;20429;-86
2022/12/09 05:08:11;;;;;;;75.50;12.33;;;2.20;99.90;;;;;;5178186;22;20172;-86
2022/12/09 05:10:37;;;;;;;77.50;14.80;;;2.20;99.90;;;;;;5071279;28;20196;-86
2022/12/09 05:13:03;;;;;;;78.07;14.60;;;2.20;99.90;;;;;;5064169;28;20265;-86
2022/12/09 05:15:29;;;;;;;73.70;14.13;;;2.30;99.90;;;;;;5062737;28;20205;-85
2022/12/09 05:17:56;;;;;;;78.77;17.53;;;2.40;99.90;;;;;;5080469;28;20167;-85
2022/12/09 05:20:26;;;;;;;81.53;18.30;;;2.30;99.90;;;;;;5081396;28;20418;-85
2022/12/09 05:22:55;;;;;;;76.13;16.85;;;2.20;99.90;;;;;;5062939;28;20195;-86
2022/12/09 05:25:22;;;;;;;74.95;19.00;;;2.20;99.90;;;;;;5080418;28;20572;-85
2022/12/09 05:27:47;;;;;;;76.72;19.75;;;2.10;99.90;;;;;;5080858;28;20156;-86
2022/12/09 05:30:13;;;;;;;78.73;19.10;;;2.10;99.90;;;;;;5062663;28;20266;-85
2022/12/09 05:32:40;;;;;;;76.30;19.50;;;2.00;99.90;;;;;;5081156;28;20171;-85
2022/12/09 05:35:06;;;;;;;81.07;22.45;;;2.00;99.90;;;;;;5062831;28;20256;-85
2022/12/09 05:37:35;;;;;;;78.57;22.73;;;2.00;99.90;;;;;;5080695;28;20160;-85
2022/12/09 05:40:01;;;;;;;76.43;22.65;;;2.00;99.90;;;;;;5080600;28;20649;-85
2022/12/09 05:42:26;;;;;;;78.27;20.10;;;2.00;99.90;;;;;;5081224;28;20164;-85
2022/12/09 05:44:53;;;;;;;82.03;22.90;;;1.90;99.90;;;;;;5063094;28;20258;-85
2022/12/09 05:47:19;;;;;;;78.30;20.38;;;1.90;99.90;;;;;;5062682;28;20252;-86
2022/12/09 05:49:44;;;;;;;78.07;20.00;;;1.80;99.90;;;;;;5061809;28;20204;-85
2022/12/09 05:52:13;;;;;;;76.30;19.47;;;1.80;99.90;;;;;;5080128;28;20160;-86
2022/12/09 05:54:39;;;;;;;76.75;18.52;;;1.60;99.90;;;;;;5080160;28;20215;-86
2022/12/09 05:57:05;;;;;;;77.95;18.48;;;1.70;99.90;;;;;;5081085;28;20168;-86
2022/12/09 05:59:30;;;;;;;78.17;20.93;;;1.60;99.90;;;;;;5080338;28;20156;-85
2022/12/09 06:01:56;;;;;;;74.20;17.63;;;1.50;99.90;;;;;;5080289;28;20434;-84
2022/12/09 06:04:22;;;;;;;75.23;18.23;;;1.50;99.90;;;;;;5079528;28;20164;-84
2022/12/09 06:06:47;;;;;;;80.43;23.30;;;1.40;99.90;;;;;;5081296;28;20514;-85
2022/12/09 06:09:13;;;;;;;78.53;21.07;;;1.40;99.90;;;;;;5071064;28;20183;-85
2022/12/09 06:11:39;;;;;;;77.07;24.37;;;1.40;99.90;;;;;;5089166;28;20183;-86
2022/12/09 06:14:10;;;;;;;75.13;22.40;;;1.40;99.90;;;;;;5064062;28;20187;-86
2022/12/09 06:16:36;;;;;;;81.05;25.25;;;1.40;99.90;;;;;;5081534;28;20205;-86
2022/12/09 06:19:02;;;;;;;77.15;25.60;;;1.40;99.90;;;;;;5063003;28;20175;-85
2022/12/09 06:21:29;;;;;;;77.03;20.92;;;1.30;99.90;;;;;;5081035;28;20278;-86
2022/12/09 06:23:55;;;;;;;78.13;22.92;;;1.40;99.90;;;;;;5080651;28;20168;-86
2022/12/09 06:26:26;;;;;;;79.95;26.30;;;1.30;99.90;;;;;;5062415;28;20167;-84
2022/12/09 06:28:53;;;;;;;80.78;29.15;;;1.30;99.90;;;;;;5080608;28;20156;-85
2022/12/09 06:31:19;;;;;;;80.18;26.65;;;1.30;99.90;;;;;;5062616;28;20282;-85
2022/12/09 06:33:45;;;;;;;80.95;26.65;;;1.30;99.90;;;;;;5080707;28;20737;-85
2022/12/09 06:36:11;;;;;;;76.47;26.97;;;1.30;99.90;;;;;;5080771;28;20183;-85
2022/12/09 06:38:37;;;;;;;82.50;31.50;;;1.30;99.90;;;;;;5062529;28;20421;-85
2022/12/09 06:41:11;;;;;;;77.80;26.02;;;1.30;99.90;;;;;;5062599;28;20426;-85
2022/12/09 06:43:37;;;;;;;80.13;28.63;;;1.30;99.90;;;;;;5061510;28;20164;-85
2022/12/09 06:46:12;;;;;;;81.55;31.17;;;1.30;99.90;;;;;;5079756;28;20221;-84
2022/12/09 06:48:38;;;;;;;80.78;28.40;;;1.30;99.90;;;;;;5080003;28;20163;-85
2022/12/09 06:51:04;;;;;;;82.83;28.73;;;1.30;99.90;;;;;;5062253;28;20191;-85
2022/12/09 06:53:30;;;;;;;84.03;29.17;;;1.30;99.90;;;;;;5062275;28;20278;-86
2022/12/09 06:56:01;;;;;;;79.67;29.43;;;1.30;99.90;;;;;;5080131;28;20191;-86
2022/12/09 06:58:26;;;;;;;84.25;30.27;;;1.30;99.90;;;;;;5061579;28;20398;-84
2022/12/09 07:00:54;;;;;;;78.80;29.07;;;1.30;99.90;;;;;;5078145;28;20270;-85
2022/12/09 07:03:20;;;;;;;78.40;29.13;;;1.20;99.90;;;;;;5078002;28;20656;-85
2022/12/09 07:05:46;;;;;;;79.23;30.10;;;1.20;99.90;;;;;;5078267;28;20178;-85
2022/12/09 07:08:11;;;;;;;79.70;30.30;;;1.10;99.90;;;;;;5059913;28;20406;-85
2022/12/09 07:10:37;;;;;;;78.73;30.87;;;1.20;99.90;;;;;;5078878;28;20183;-86
2022/12/09 07:13:03;;;;;;;76.37;26.90;;;1.20;99.90;;;;;;5061094;28;20167;-86
2022/12/09 07:15:29;;;;;;;78.67;27.90;;;1.30;99.90;;;;;;5060667;28;20414;-86
2022/12/09 07:17:54;;;;;;;79.17;28.30;;;1.30;99.90;;;;;;5060510;28;20251;-86
2022/12/09 07:20:20;;;;;;;81.20;28.47;;;1.40;99.90;;;;;;5060728;28;20530;-86
2022/12/09 07:22:46;;;;;;;82.83;29.80;;;1.30;99.90;;;;;;5078111;28;20580;-86
2022/12/09 07:25:11;;;;;;;80.43;29.50;;;1.40;99.90;;;;;;5058575;28;20170;-85
2022/12/09 07:27:38;;;;;;;86.17;28.80;;;1.40;99.90;;;;;;5077284;28;20610;-85
2022/12/09 07:30:04;;;;;;;84.15;24.55;;;1.40;99.90;;;;;;5059115;28;20208;-84
2022/12/09 07:32:30;;;;;;;80.50;25.52;;;1.40;99.90;;;;;;5079828;28;20168;-85
2022/12/09 07:34:56;;;;;;;79.10;20.57;;;1.50;99.90;;;;;;5066583;28;20217;-85
2022/12/09 07:37:22;;;;;;;79.88;18.88;;;1.50;99.90;;;;;;5084302;28;20525;-83
2022/12/09 07:39:47;;;;;;;78.40;20.60;;;1.50;99.90;;;;;;5079607;28;20164;-85
2022/12/09 07:42:13;;;;;;;80.83;21.03;;;1.60;99.90;;;;;;5083994;28;20924;-85
2022/12/09 07:44:39;;;;;;;76.63;18.13;;;1.70;99.90;;;;;;5084758;28;20217;-85
2022/12/09 07:47:04;;;;;;;78.43;20.17;;;1.70;99.90;;;;;;5084694;28;20199;-85
2022/12/09 07:49:30;;;;;;;79.83;20.43;;;1.80;99.90;;;;;;5065288;28;20591;-85
2022/12/09 07:51:55;;;;;;;80.00;20.27;;;1.80;99.90;;;;;;5065176;28;20204;-85
2022/12/09 07:54:21;;;;;;;77.40;19.30;;;1.80;99.90;;;;;;5081572;28;20211;-85
2022/12/09 07:56:47;;;;;;;76.90;18.03;;;1.80;99.90;;;;;;5063554;28;20226;-85
2022/12/09 07:59:15;;;;;;;77.40;19.88;;;1.80;99.90;;;;;;5081113;28;20148;-85
2022/12/09 08:01:42;;;;;;;78.88;21.25;;;1.90;99.90;;;;;;5064845;28;20206;-85
2022/12/09 08:04:08;;;;;;;80.90;24.42;;;1.90;99.90;;;;;;5086205;28;20297;-85
2022/12/09 08:06:34;;;;;;;78.97;21.75;;;2.00;99.90;;;;;;5069515;28;20168;-85
2022/12/09 08:09:03;;;;;;;80.88;20.75;;;2.00;99.90;;;;;;5067193;28;20188;-85
2022/12/09 08:11:30;;;;;;;81.20;22.58;;;2.00;99.90;;;;;;5068649;28;20191;-85
2022/12/09 08:13:58;;;;;;;81.72;20.55;;;2.10;99.90;;;;;;5086822;28;20214;-85
2022/12/09 08:16:24;;;;;;;81.15;21.70;;;2.10;99.90;;;;;;5087292;28;20232;-85
2022/12/09 08:18:51;;;;;;;85.13;18.80;;;2.10;99.90;;;;;;5069426;28;20164;-85
2022/12/09 08:21:20;;;;;;;80.88;19.58;;;2.10;99.90;;;;;;5069241;28;20212;-85
2022/12/09 08:23:48;;;;;;;86.35;23.45;;;2.20;99.90;;;;;;5087169;28;20246;-85
2022/12/09 08:26:16;;;;;;;78.55;19.38;;;2.20;99.90;;;;;;5068229;28;20202;-85
2022/12/09 08:28:42;;;;;;;79.32;20.48;;;2.20;99.90;;;;;;5087451;28;20144;-85
2022/12/09 08:31:14;;;;;;;82.43;21.90;;;2.30;99.90;;;;;;5087755;28;20184;-85
2022/12/09 08:33:40;;;;;;;83.47;22.83;;;2.40;99.90;;;;;;5087311;28;20454;-85
2022/12/09 08:36:15;;;;;;;83.80;23.73;;;2.40;99.90;;;;;;5086488;28;20156;-85
2022/12/09 08:38:41;;;;;;;83.20;18.27;;;2.40;99.90;;;;;;5069366;28;20159;-85
2022/12/09 08:41:16;;;;;;;86.78;20.85;;;2.40;99.90;;;;;;5068057;28;20219;-85
2022/12/09 08:43:42;;;;;;;84.18;21.50;;;2.40;99.90;;;;;;5085568;28;20155;-85
2022/12/09 08:46:08;;;;;;;79.40;19.88;;;2.60;99.90;;;;;;5085566;28;20167;-85
2022/12/09 08:48:38;;;;;;;81.78;19.45;;;2.60;99.90;;;;;;5086708;28;20156;-85
2022/12/09 08:51:05;;;;;;;86.95;20.50;;;2.70;99.90;;;;;;5068902;28;20195;-85
2022/12/09 08:53:31;;;;;;;86.78;21.13;;;2.70;99.90;;;;;;5086753;28;20236;-85
2022/12/09 08:55:57;;;;;;;83.50;24.13;;;2.70;99.90;;;;;;5086240;28;20141;-85
2022/12/09 08:58:23;;;;;;;79.35;21.02;;;2.80;99.90;;;;;;5068761;28;20164;-85
2022/12/09 09:01:03;;;;;;;85.57;24.77;;;2.90;99.90;;;;;;5069450;28;20180;-85
2022/12/09 09:03:29;;;;;;;83.43;24.48;;;3.00;99.90;;;;;;5069572;28;20409;-85
2022/12/09 09:06:01;;;;;;;87.47;26.42;;;3.10;99.90;;;;;;5086322;28;20160;-86
2022/12/09 09:08:26;;;;;;;92.13;24.35;;;3.20;99.90;;;;;;5086454;28;20175;-85
2022/12/09 09:10:53;;;;;;;81.27;23.80;;;3.20;99.90;;;;;;5086139;28;20610;-85
2022/12/09 09:13:19;;;;;;;84.75;24.70;;;3.20;99.90;;;;;;5085523;28;20210;-86
2022/12/09 09:15:45;;;;;;;85.55;23.67;;;3.20;99.90;;;;;;5086304;28;20167;-86
2022/12/09 09:18:10;;;;;;;81.30;20.43;;;3.20;99.90;;;;;;5068763;28;20648;-86
2022/12/09 09:20:36;;;;;;;87.70;25.30;;;3.20;99.90;;;;;;5086466;28;20184;-86
2022/12/09 09:23:02;;;;;;;82.50;20.37;;;3.30;99.90;;;;;;5084553;28;20188;-85
2022/12/09 09:25:27;;;;;;;82.83;17.97;;;3.30;99.90;;;;;;5084055;28;20167;-86
2022/12/09 09:27:53;;;;;;;82.07;18.97;;;3.30;99.90;;;;;;5084938;28;20184;-85
2022/12/09 09:30:19;;;;;;;83.43;17.93;;;3.30;99.90;;;;;;5085639;28;20644;-86
2022/12/09 09:32:45;;;;;;;79.40;15.50;;;3.30;99.90;;;;;;5085569;28;20477;-86
2022/12/09 09:35:10;;;;;;;79.40;17.60;;;3.40;99.90;;;;;;5087986;28;20549;-85
2022/12/09 09:37:36;;;;;;;82.30;18.13;;;3.40;99.90;;;;;;5086761;28;20217;-86
2022/12/09 09:40:02;;;;;;;76.40;15.23;;;3.40;99.90;;;;;;5087149;28;20611;-85
2022/12/09 09:42:34;;;;;;;83.87;15.30;;;3.40;99.90;;;;;;5088116;28;20196;-86
2022/12/09 09:45:04;;;;;;;86.05;15.13;;;3.50;99.90;;;;;;5087449;28;20444;-85
2022/12/09 09:47:35;;;;;;;81.82;15.32;;;3.50;99.90;;;;;;5087556;28;20163;-86
2022/12/09 09:50:16;;;;;;;82.45;15.13;;;3.60;99.90;;;;;;5069683;28;20192;-86
2022/12/09 09:52:42;;;;;;;79.47;15.07;;;3.60;99.90;;;;;;5070435;28;20156;-85
2022/12/09 09:55:14;;;;;;;78.40;15.17;;;3.60;99.90;;;;;;5087008;28;20196;-85
2022/12/09 09:58:15;;;;;;;82.05;14.80;;;3.60;99.90;;;;;;5087754;28;20160;-85
2022/12/09 10:01:05;;;;;;;79.63;14.07;;;3.60;99.90;;;;;;5070911;28;20651;-85
2022/12/09 10:04:04;;;;;;;79.85;16.05;;;3.60;99.90;;;;;;5069202;28;20614;-85
2022/12/09 10:06:44;;;;;;;82.75;15.30;;;3.70;99.90;;;;;;5069642;28;20166;-86
2022/12/09 10:09:27;;;;;;;78.20;14.30;;;3.60;99.90;;;;;;5068753;28;20695;-86
2022/12/09 10:12:20;;;;;;;81.47;15.75;;;3.70;99.90;;;;;;5068588;28;20209;-86
2022/12/09 10:15:08;;;;;;;84.07;15.25;;;3.80;99.90;;;;;;5067634;28;20194;-86
2022/12/09 10:17:47;;;;;;;80.90;13.75;;;3.80;99.90;;;;;;5085601;28;20148;-86
2022/12/09 10:20:32;;;;;;;80.63;15.95;;;3.80;99.90;;;;;;5069654;28;20274;-85
2022/12/09 10:23:05;;;;;;;79.50;15.85;;;3.80;99.90;;;;;;5087858;28;20144;-86
2022/12/09 10:25:35;;;;;;;82.00;17.70;;;3.90;99.90;;;;;;5068687;28;20575;-85
2022/12/09 10:28:15;;;;;;;79.50;16.70;;;3.90;99.90;;;;;;5069220;28;20183;-85
2022/12/09 10:30:40;;;;;;;84.80;14.95;;;3.90;99.90;;;;;;5069994;28;20207;-86
2022/12/09 10:33:11;;;;;;;81.63;16.57;;;4.00;99.90;;;;;;5086505;28;20156;-86
2022/12/09 10:35:36;;;;;;;80.72;16.70;;;4.00;99.90;;;;;;5069410;28;20155;-86
2022/12/09 10:38:08;;;;;;;84.83;17.80;;;4.00;99.90;;;;;;5087323;28;20164;-85
2022/12/09 10:40:46;;;;;;;81.78;17.00;;;3.90;99.90;;;;;;5086845;28;20317;-85
2022/12/09 10:43:36;;;;;;;81.35;14.40;;;4.00;99.90;;;;;;5069153;28;20163;-85
2022/12/09 10:46:25;;;;;;;84.53;16.60;;;4.10;99.90;;;;;;5087105;28;20582;-85
2022/12/09 10:48:57;;;;;;;80.93;15.88;;;4.10;99.90;;;;;;5087458;28;20235;-86
2022/12/09 10:51:22;;;;;;;79.78;15.27;;;4.10;99.90;;;;;;5069597;28;20194;-86
2022/12/09 10:53:51;;;;;;;77.37;14.53;;;4.20;99.90;;;;;;5068967;28;20211;-86
2022/12/09 10:56:25;;;;;;;91.47;19.27;;;4.20;99.90;;;;;;5087478;28;20168;-85
2022/12/09 10:59:17;;;;;;;81.75;16.55;;;4.20;99.90;;;;;;5087362;28;20154;-86
2022/12/09 11:02:08;;;;;;;81.57;16.48;;;4.20;99.90;;;;;;5087031;28;20202;-86
2022/12/09 11:04:40;;;;;;;81.97;16.35;;;4.30;99.90;;;;;;5086267;28;20174;-85
2022/12/09 11:07:11;;;;;;;84.75;15.90;;;4.30;99.90;;;;;;5086148;28;20167;-85
2022/12/09 11:09:38;;;;;;;83.03;19.50;;;4.40;99.90;;;;;;5139741;22;20681;-85
2022/12/09 11:12:06;;;;;;;85.70;19.85;;;4.40;99.90;;;;;;5053111;28;20594;-85
2022/12/09 11:14:47;;;;;;;81.13;16.95;;;4.50;99.90;;;;;;5053024;28;20255;-85
2022/12/09 11:17:26;;;;;;;89.53;15.82;;;4.50;99.90;;;;;;5053603;28;20151;-85
2022/12/09 11:20:24;;;;;;;77.07;13.27;;;4.60;99.90;;;;;;5035205;28;20161;-85
2022/12/09 11:23:13;;;;;;;80.13;15.40;;;4.60;99.90;;;;;;5053095;28;20223;-86
2022/12/09 11:25:53;;;;;;;78.90;15.15;;;4.60;99.90;;;;;;5035846;28;20526;-86
2022/12/09 11:28:39;;;;;;;83.30;16.25;;;4.60;99.90;;;;;;5035963;28;20163;-86
2022/12/09 11:31:19;;;;;;;78.90;15.50;;;4.40;99.90;;;;;;5054224;28;20219;-86
2022/12/09 11:33:52;;;;;;;90.75;17.35;;;4.40;99.90;;;;;;5054263;28;20696;-86
2022/12/09 11:36:26;;;;;;;85.10;16.65;;;4.40;99.90;;;;;;5037976;28;20175;-86
2022/12/09 11:39:06;;;;;;;84.88;18.00;;;4.40;99.90;;;;;;5058492;28;20499;-86
2022/12/09 11:44:36;;;;;;;90.45;19.33;;;4.40;99.90;;;;;;5058299;28;20226;-86
2022/12/09 11:47:33;;;;;;;87.15;19.95;;;4.30;99.90;;;;;;5040527;28;20172;-85
2022/12/09 11:50:21;;;;;;;88.95;21.35;;;4.30;99.90;;;;;;5047364;28;20734;-85
2022/12/09 11:53:09;;;;;;;84.28;17.23;;;4.30;99.90;;;;;;5028283;28;20176;-85
2022/12/09 11:55:43;;;;;;;96.78;19.15;;;4.40;99.90;;;;;;5058967;28;20156;-86
2022/12/09 11:58:17;;;;;;;89.57;17.75;;;4.40;99.90;;;;;;5058875;28;20149;-86
2022/12/09 12:01:01;;;;;;;89.43;17.33;;;4.40;99.90;;;;;;5059254;28;20237;-86
2022/12/09 12:03:43;;;;;;;86.30;18.30;;;4.50;99.90;;;;;;5059168;28;20149;-86
2022/12/09 12:06:43;;;;;;;87.50;18.75;;;4.50;99.90;;;;;;5061918;28;20214;-85
2022/12/09 12:09:18;;;;;;;83.57;17.70;;;4.50;99.90;;;;;;5019547;28;20204;-85
2022/12/09 12:12:21;;;;;;;83.93;18.05;;;4.40;99.90;;;;;;5059718;28;20188;-86
2022/12/09 12:14:47;;;;;;;86.38;17.23;;;4.30;99.90;;;;;;5001907;28;20207;-85
2022/12/09 12:17:33;;;;;;;88.53;18.83;;;4.30;99.90;;;;;;5056961;28;20161;-86
2022/12/09 12:19:59;;;;;;;85.55;17.20;;;4.20;99.90;;;;;;5057510;28;20441;-86
2022/12/09 12:22:49;;;;;;;84.37;17.63;;;4.20;99.90;;;;;;5039203;28;20172;-86
2022/12/09 12:25:38;;;;;;;90.22;17.48;;;4.30;99.90;;;;;;5039324;28;20207;-86
2022/12/09 12:28:22;;;;;;;85.10;17.15;;;4.30;99.90;;;;;;5056905;28;20156;-86
2022/12/09 12:31:18;;;;;;;92.32;17.45;;;4.30;99.90;;;;;;5059956;28;20184;-85
2022/12/09 12:33:58;;;;;;;84.22;17.17;;;4.20;99.90;;;;;;5058301;28;20204;-85
2022/12/09 12:36:38;;;;;;;88.40;18.35;;;4.20;99.90;;;;;;5057307;28;20156;-86
2022/12/09 12:39:07;;;;;;;88.13;19.25;;;4.20;99.90;;;;;;5056804;28;20153;-86
2022/12/09 12:41:51;;;;;;;88.30;20.75;;;4.20;99.90;;;;;;5056806;28;20184;-86
2022/12/09 12:48:05;;;;;;;91.50;20.92;;;4.20;99.90;;;;;;5058537;28;20164;-86
2022/12/09 12:51:06;;;;;;;90.88;19.80;;;4.00;99.90;;;;;;4995343;28;20204;-85
2022/12/09 12:53:35;;;;;;;89.32;20.10;;;4.00;99.90;;;;;;5029863;28;20542;-85
2022/12/09 12:56:06;;;;;;;99.32;23.50;;;3.90;99.90;;;;;;5037632;28;20160;-85
2022/12/09 12:58:38;;;;;;;96.43;25.73;;;3.90;99.90;;;;;;5038322;28;20665;-78
2022/12/09 13:01:13;;;;;;;93.18;24.05;;;3.90;99.90;;;;;;5056399;28;20191;-78